Terminal Aerodrome Forecast
Issued by NWS Upton, NY

Home | Current Version | Previous Version | Text Only | Print | Product List | Glossary On
Versions: 1 2 3 4 5 6 7 8 9 10 11 12 13 14 15 16 17 18 19 20 21 22 23 24 25 26 27
000
FTUS41 KOKX 241700
TAFJFK
TAF
KJFK 241721Z 2418/2524 32024G34KT P6SM SKC
     FM242200 33018G30KT P6SM SKC
     FM250200 33012G18KT P6SM SKC
     FM250400 33009KT P6SM SKC
     FM251200 01005KT P6SM SCT250
     FM251500 14006KT P6SM SCT250
     FM251900 16015KT P6SM SCT100 BKN250=

USA.gov is the U.S. government's official web portal to all federal, state and local government web resources and services.